sensor_id;sensor_type;location;lat;lon;timestamp;temperature;humidity
20594;DHT22;10455;48.732;10.266;2023-03-23T00:04:28;11.30;99.90
20594;DHT22;10455;48.732;10.266;2023-03-23T00:09:30;11.00;99.90
20594;DHT22;10455;48.732;10.266;2023-03-23T00:14:36;10.80;99.90
20594;DHT22;10455;48.732;10.266;2023-03-23T00:19:41;10.70;99.90
20594;DHT22;10455;48.732;10.266;2023-03-23T00:24:52;10.70;99.90
20594;DHT22;10455;48.732;10.266;2023-03-23T00:29:55;10.80;99.90
20594;DHT22;10455;48.732;10.266;2023-03-23T00:34:58;11.00;99.90
20594;DHT22;10455;48.732;10.266;2023-03-23T00:40:00;11.00;99.90
20594;DHT22;10455;48.732;10.266;2023-03-23T00:45:08;11.00;99.90
20594;DHT22;10455;48.732;10.266;2023-03-23T00:50:12;11.00;99.90
20594;DHT22;10455;48.732;10.266;2023-03-23T00:55:15;11.10;99.90
20594;DHT22;10455;48.732;10.266;2023-03-23T01:00:19;10.90;99.90
20594;DHT22;10455;48.732;10.266;2023-03-23T01:05:21;10.90;99.90
20594;DHT22;10455;48.732;10.266;2023-03-23T01:10:23;11.10;99.90
20594;DHT22;10455;48.732;10.266;2023-03-23T01:15:28;11.30;99.90
20594;DHT22;10455;48.732;10.266;2023-03-23T01:20:31;11.40;99.90
20594;DHT22;10455;48.732;10.266;2023-03-23T01:25:35;11.10;99.90
20594;DHT22;10455;48.732;10.266;2023-03-23T01:30:39;10.70;99.90
20594;DHT22;10455;48.732;10.266;2023-03-23T01:35:40;10.80;99.90
20594;DHT22;10455;48.732;10.266;2023-03-23T01:40:43;11.00;99.90
20594;DHT22;10455;48.732;10.266;2023-03-23T01:45:46;11.20;99.90
20594;DHT22;10455;48.732;10.266;2023-03-23T01:50:53;11.20;99.90
20594;DHT22;10455;48.732;10.266;2023-03-23T01:55:57;11.00;99.90
20594;DHT22;10455;48.732;10.266;2023-03-23T02:01:04;10.90;99.90
20594;DHT22;10455;48.732;10.266;2023-03-23T02:06:07;10.90;99.90
20594;DHT22;10455;48.732;10.266;2023-03-23T02:11:13;10.80;99.90
20594;DHT22;10455;48.732;10.266;2023-03-23T02:16:23;10.70;99.90
20594;DHT22;10455;48.732;10.266;2023-03-23T02:22:00;10.70;99.90
20594;DHT22;10455;48.732;10.266;2023-03-23T02:27:06;10.70;99.90
20594;DHT22;10455;48.732;10.266;2023-03-23T02:32:31;10.80;99.90
20594;DHT22;10455;48.732;10.266;2023-03-23T02:37:46;10.80;99.90
20594;DHT22;10455;48.732;10.266;2023-03-23T02:42:50;10.90;99.90
20594;DHT22;10455;48.732;10.266;2023-03-23T02:47:54;10.50;99.90
20594;DHT22;10455;48.732;10.266;2023-03-23T02:52:59;10.60;99.90
20594;DHT22;10455;48.732;10.266;2023-03-23T02:58:01;10.70;99.90
20594;DHT22;10455;48.732;10.266;2023-03-23T03:03:04;10.60;99.90
20594;DHT22;10455;48.732;10.266;2023-03-23T03:08:15;10.60;99.90
20594;DHT22;10455;48.732;10.266;2023-03-23T03:13:27;10.70;99.90
20594;DHT22;10455;48.732;10.266;2023-03-23T03:18:34;10.80;99.90
20594;DHT22;10455;48.732;10.266;2023-03-23T03:23:42;10.90;99.90
20594;DHT22;10455;48.732;10.266;2023-03-23T03:28:47;10.80;99.90
20594;DHT22;10455;48.732;10.266;2023-03-23T03:33:50;10.60;99.90
20594;DHT22;10455;48.732;10.266;2023-03-23T03:38:54;10.40;99.90
20594;DHT22;10455;48.732;10.266;2023-03-23T03:43:57;10.60;99.90
20594;DHT22;10455;48.732;10.266;2023-03-23T03:49:03;10.80;99.90
20594;DHT22;10455;48.732;10.266;2023-03-23T03:54:07;11.10;99.90
20594;DHT22;10455;48.732;10.266;2023-03-23T03:59:10;11.00;99.90
20594;DHT22;10455;48.732;10.266;2023-03-23T04:04:13;11.10;99.90
20594;DHT22;10455;48.732;10.266;2023-03-23T04:09:16;11.00;99.90
20594;DHT22;10455;48.732;10.266;2023-03-23T04:14:19;10.90;99.90
20594;DHT22;10455;48.732;10.266;2023-03-23T04:19:22;10.70;99.90
20594;DHT22;10455;48.732;10.266;2023-03-23T04:24:25;10.80;99.90
20594;DHT22;10455;48.732;10.266;2023-03-23T04:29:28;10.70;99.90
20594;DHT22;10455;48.732;10.266;2023-03-23T04:34:30;10.70;99.90
20594;DHT22;10455;48.732;10.266;2023-03-23T04:39:34;10.50;99.90
20594;DHT22;10455;48.732;10.266;2023-03-23T04:44:36;10.60;99.90
20594;DHT22;10455;48.732;10.266;2023-03-23T04:49:38;10.60;99.90
20594;DHT22;10455;48.732;10.266;2023-03-23T04:54:41;10.50;99.90
20594;DHT22;10455;48.732;10.266;2023-03-23T04:59:43;10.60;99.90
20594;DHT22;10455;48.732;10.266;2023-03-23T05:04:45;10.50;99.90
20594;DHT22;10455;48.732;10.266;2023-03-23T05:09:49;10.70;99.90
20594;DHT22;10455;48.732;10.266;2023-03-23T05:14:51;10.80;99.90
20594;DHT22;10455;48.732;10.266;2023-03-23T05:19:53;10.70;99.90
20594;DHT22;10455;48.732;10.266;2023-03-23T05:24:58;10.60;99.90
20594;DHT22;10455;48.732;10.266;2023-03-23T05:30:03;10.70;99.90
20594;DHT22;10455;48.732;10.266;2023-03-23T05:35:06;10.80;99.90
20594;DHT22;10455;48.732;10.266;2023-03-23T05:40:10;10.90;99.90
20594;DHT22;10455;48.732;10.266;2023-03-23T05:45:12;11.00;99.90
20594;DHT22;10455;48.732;10.266;2023-03-23T05:50:14;11.10;99.90
20594;DHT22;10455;48.732;10.266;2023-03-23T05:55:18;11.20;99.90
20594;DHT22;10455;48.732;10.266;2023-03-23T06:00:20;11.30;99.90
20594;DHT22;10455;48.732;10.266;2023-03-23T06:05:24;11.40;99.90
20594;DHT22;10455;48.732;10.266;2023-03-23T06:10:28;11.60;99.90
20594;DHT22;10455;48.732;10.266;2023-03-23T06:15:31;11.70;99.90
20594;DHT22;10455;48.732;10.266;2023-03-23T06:20:33;11.90;99.90
20594;DHT22;10455;48.732;10.266;2023-03-23T06:25:37;11.90;99.90
20594;DHT22;10455;48.732;10.266;2023-03-23T06:30:39;12.10;99.90
20594;DHT22;10455;48.732;10.266;2023-03-23T06:35:41;12.10;99.90
20594;DHT22;10455;48.732;10.266;2023-03-23T06:40:45;12.10;99.90
20594;DHT22;10455;48.732;10.266;2023-03-23T06:45:47;12.20;99.90
20594;DHT22;10455;48.732;10.266;2023-03-23T06:50:49;12.30;99.90
20594;DHT22;10455;48.732;10.266;2023-03-23T06:55:52;12.40;99.90
20594;DHT22;10455;48.732;10.266;2023-03-23T07:00:54;12.60;99.90
20594;DHT22;10455;48.732;10.266;2023-03-23T07:05:58;12.80;99.90
20594;DHT22;10455;48.732;10.266;2023-03-23T07:11:02;13.10;99.90
20594;DHT22;10455;48.732;10.266;2023-03-23T07:16:05;13.10;99.90
20594;DHT22;10455;48.732;10.266;2023-03-23T07:21:07;13.10;99.90
20594;DHT22;10455;48.732;10.266;2023-03-23T07:26:11;13.40;99.90
20594;DHT22;10455;48.732;10.266;2023-03-23T07:31:13;13.40;99.90
20594;DHT22;10455;48.732;10.266;2023-03-23T07:36:15;13.50;99.90
20594;DHT22;10455;48.732;10.266;2023-03-23T07:41:18;13.70;99.90
20594;DHT22;10455;48.732;10.266;2023-03-23T07:46:20;14.10;99.90
20594;DHT22;10455;48.732;10.266;2023-03-23T07:51:22;14.30;99.90
20594;DHT22;10455;48.732;10.266;2023-03-23T07:56:25;14.70;99.90
20594;DHT22;10455;48.732;10.266;2023-03-23T08:01:27;14.90;99.90
20594;DHT22;10455;48.732;10.266;2023-03-23T08:06:32;14.70;99.90
20594;DHT22;10455;48.732;10.266;2023-03-23T08:11:37;14.30;99.90
20594;DHT22;10455;48.732;10.266;2023-03-23T08:16:39;14.30;99.90
20594;DHT22;10455;48.732;10.266;2023-03-23T08:21:41;14.20;99.90
20594;DHT22;10455;48.732;10.266;2023-03-23T08:26:45;13.90;99.90
20594;DHT22;10455;48.732;10.266;2023-03-23T08:31:47;13.90;99.90
20594;DHT22;10455;48.732;10.266;2023-03-23T08:36:48;14.30;99.90
20594;DHT22;10455;48.732;10.266;2023-03-23T08:41:53;14.70;99.90
20594;DHT22;10455;48.732;10.266;2023-03-23T08:46:55;15.00;99.90
20594;DHT22;10455;48.732;10.266;2023-03-23T08:51:58;15.30;99.90
20594;DHT22;10455;48.732;10.266;2023-03-23T08:57:02;15.70;99.90
20594;DHT22;10455;48.732;10.266;2023-03-23T09:02:04;15.50;99.90
20594;DHT22;10455;48.732;10.266;2023-03-23T09:07:06;15.90;99.90
20594;DHT22;10455;48.732;10.266;2023-03-23T09:12:09;16.50;99.90
20594;DHT22;10455;48.732;10.266;2023-03-23T09:17:12;16.70;99.90
20594;DHT22;10455;48.732;10.266;2023-03-23T09:22:14;17.20;99.90
20594;DHT22;10455;48.732;10.266;2023-03-23T09:27:21;18.10;99.90
20594;DHT22;10455;48.732;10.266;2023-03-23T09:32:23;19.00;99.00
20594;DHT22;10455;48.732;10.266;2023-03-23T09:37:26;20.40;95.80
20594;DHT22;10455;48.732;10.266;2023-03-23T09:42:37;20.80;95.20
20594;DHT22;10455;48.732;10.266;2023-03-23T09:47:49;19.70;95.80
20594;DHT22;10455;48.732;10.266;2023-03-23T09:52:56;19.00;95.60
20594;DHT22;10455;48.732;10.266;2023-03-23T09:58:08;18.90;96.50
20594;DHT22;10455;48.732;10.266;2023-03-23T10:03:14;18.50;96.90
20594;DHT22;10455;48.732;10.266;2023-03-23T10:08:19;18.70;97.80
20594;DHT22;10455;48.732;10.266;2023-03-23T10:13:31;18.80;96.40
20594;DHT22;10455;48.732;10.266;2023-03-23T10:18:38;18.30;97.90
20594;DHT22;10455;48.732;10.266;2023-03-23T10:23:54;18.20;98.60
20594;DHT22;10455;48.732;10.266;2023-03-23T10:29:07;18.30;98.00
20594;DHT22;10455;48.732;10.266;2023-03-23T10:34:17;19.10;96.80
20594;DHT22;10455;48.732;10.266;2023-03-23T10:39:22;18.40;97.30
20594;DHT22;10455;48.732;10.266;2023-03-23T10:44:26;18.20;97.80
20594;DHT22;10455;48.732;10.266;2023-03-23T10:49:33;18.80;97.50
20594;DHT22;10455;48.732;10.266;2023-03-23T10:54:38;18.70;97.50
20594;DHT22;10455;48.732;10.266;2023-03-23T10:59:42;19.20;97.70
20594;DHT22;10455;48.732;10.266;2023-03-23T11:04:53;18.20;97.40
20594;DHT22;10455;48.732;10.266;2023-03-23T11:10:03;17.20;99.80
20594;DHT22;10455;48.732;10.266;2023-03-23T11:15:25;16.50;99.90
20594;DHT22;10455;48.732;10.266;2023-03-23T11:20:34;16.40;99.90
20594;DHT22;10455;48.732;10.266;2023-03-23T11:25:55;16.70;99.90
20594;DHT22;10455;48.732;10.266;2023-03-23T11:31:01;16.60;99.90
20594;DHT22;10455;48.732;10.266;2023-03-23T11:36:05;17.20;99.90
20594;DHT22;10455;48.732;10.266;2023-03-23T11:41:10;18.50;99.80
20594;DHT22;10455;48.732;10.266;2023-03-23T11:46:19;18.00;99.50
20594;DHT22;10455;48.732;10.266;2023-03-23T11:51:29;17.60;99.90
20594;DHT22;10455;48.732;10.266;2023-03-23T11:56:35;17.50;99.90
20594;DHT22;10455;48.732;10.266;2023-03-23T12:01:47;17.70;99.90
20594;DHT22;10455;48.732;10.266;2023-03-23T12:06:53;18.00;99.90
20594;DHT22;10455;48.732;10.266;2023-03-23T12:12:05;18.10;99.70
20594;DHT22;10455;48.732;10.266;2023-03-23T12:17:20;17.80;99.90
20594;DHT22;10455;48.732;10.266;2023-03-23T12:22:33;18.40;99.80
20594;DHT22;10455;48.732;10.266;2023-03-23T12:27:45;19.70;98.00
20594;DHT22;10455;48.732;10.266;2023-03-23T12:33:03;21.30;96.70
20594;DHT22;10455;48.732;10.266;2023-03-23T12:38:26;20.20;97.70
20594;DHT22;10455;48.732;10.266;2023-03-23T12:43:35;20.30;97.40
20594;DHT22;10455;48.732;10.266;2023-03-23T12:48:42;22.00;95.60
20594;DHT22;10455;48.732;10.266;2023-03-23T12:53:52;22.30;94.70
20594;DHT22;10455;48.732;10.266;2023-03-23T12:59:02;21.00;94.90
20594;DHT22;10455;48.732;10.266;2023-03-23T13:04:11;20.10;96.30
20594;DHT22;10455;48.732;10.266;2023-03-23T13:09:18;19.60;97.20
20594;DHT22;10455;48.732;10.266;2023-03-23T13:14:31;19.40;97.90
20594;DHT22;10455;48.732;10.266;2023-03-23T13:19:57;19.80;95.70
20594;DHT22;10455;48.732;10.266;2023-03-23T13:25:03;18.40;97.00
20594;DHT22;10455;48.732;10.266;2023-03-23T13:30:19;18.40;98.00
20594;DHT22;10455;48.732;10.266;2023-03-23T13:35:26;19.00;97.50
20594;DHT22;10455;48.732;10.266;2023-03-23T13:40:34;18.40;97.30
20594;DHT22;10455;48.732;10.266;2023-03-23T13:45:43;18.40;97.90
20594;DHT22;10455;48.732;10.266;2023-03-23T13:50:52;18.30;98.80
20594;DHT22;10455;48.732;10.266;2023-03-23T13:56:07;18.00;99.90
20594;DHT22;10455;48.732;10.266;2023-03-23T14:01:13;18.30;99.90
20594;DHT22;10455;48.732;10.266;2023-03-23T14:06:21;18.80;99.70
20594;DHT22;10455;48.732;10.266;2023-03-23T14:11:27;19.20;98.80
20594;DHT22;10455;48.732;10.266;2023-03-23T14:16:37;19.60;98.40
20594;DHT22;10455;48.732;10.266;2023-03-23T14:21:42;19.20;97.70
20594;DHT22;10455;48.732;10.266;2023-03-23T14:26:50;19.30;98.30
20594;DHT22;10455;48.732;10.266;2023-03-23T14:31:55;18.90;97.90
20594;DHT22;10455;48.732;10.266;2023-03-23T14:36:59;18.80;98.20
20594;DHT22;10455;48.732;10.266;2023-03-23T14:42:04;18.60;98.10
20594;DHT22;10455;48.732;10.266;2023-03-23T14:47:16;18.30;98.60
20594;DHT22;10455;48.732;10.266;2023-03-23T14:52:24;18.60;98.70
20594;DHT22;10455;48.732;10.266;2023-03-23T14:57:27;18.80;98.00
20594;DHT22;10455;48.732;10.266;2023-03-23T15:02:32;19.00;98.40
20594;DHT22;10455;48.732;10.266;2023-03-23T15:07:37;18.90;97.50
20594;DHT22;10455;48.732;10.266;2023-03-23T15:12:39;18.40;97.80
20594;DHT22;10455;48.732;10.266;2023-03-23T15:17:46;17.60;98.60
20594;DHT22;10455;48.732;10.266;2023-03-23T15:22:50;17.20;99.20
20594;DHT22;10455;48.732;10.266;2023-03-23T15:27:53;16.90;99.20
20594;DHT22;10455;48.732;10.266;2023-03-23T15:33:05;16.70;99.40
20594;DHT22;10455;48.732;10.266;2023-03-23T15:38:17;16.80;99.80
20594;DHT22;10455;48.732;10.266;2023-03-23T15:43:21;17.00;99.20
20594;DHT22;10455;48.732;10.266;2023-03-23T15:48:24;17.00;99.60
20594;DHT22;10455;48.732;10.266;2023-03-23T15:53:30;17.20;99.30
20594;DHT22;10455;48.732;10.266;2023-03-23T15:58:34;16.90;99.60
20594;DHT22;10455;48.732;10.266;2023-03-23T16:03:39;16.90;99.80
20594;DHT22;10455;48.732;10.266;2023-03-23T16:08:43;16.90;99.80
20594;DHT22;10455;48.732;10.266;2023-03-23T16:13:46;17.10;99.80
20594;DHT22;10455;48.732;10.266;2023-03-23T16:18:48;17.00;99.50
20594;DHT22;10455;48.732;10.266;2023-03-23T16:23:51;16.60;99.90
20594;DHT22;10455;48.732;10.266;2023-03-23T16:28:53;16.50;99.90
20594;DHT22;10455;48.732;10.266;2023-03-23T16:33:55;16.50;99.90
20594;DHT22;10455;48.732;10.266;2023-03-23T16:38:58;16.50;99.90
20594;DHT22;10455;48.732;10.266;2023-03-23T16:44:00;16.60;99.90
20594;DHT22;10455;48.732;10.266;2023-03-23T16:49:02;16.50;99.90
20594;DHT22;10455;48.732;10.266;2023-03-23T16:54:06;16.30;99.90
20594;DHT22;10455;48.732;10.266;2023-03-23T16:59:08;16.30;99.90
20594;DHT22;10455;48.732;10.266;2023-03-23T17:04:09;16.20;99.90
20594;DHT22;10455;48.732;10.266;2023-03-23T17:09:13;16.20;99.90
20594;DHT22;10455;48.732;10.266;2023-03-23T17:14:15;16.10;99.90
20594;DHT22;10455;48.732;10.266;2023-03-23T17:19:16;16.00;99.90
20594;DHT22;10455;48.732;10.266;2023-03-23T17:24:20;16.00;99.90
20594;DHT22;10455;48.732;10.266;2023-03-23T17:29:22;15.90;99.90
20594;DHT22;10455;48.732;10.266;2023-03-23T17:34:24;15.90;99.90
20594;DHT22;10455;48.732;10.266;2023-03-23T17:39:27;15.70;99.90
20594;DHT22;10455;48.732;10.266;2023-03-23T17:44:29;15.60;99.90
20594;DHT22;10455;48.732;10.266;2023-03-23T17:49:31;15.40;99.90
20594;DHT22;10455;48.732;10.266;2023-03-23T17:54:34;15.00;99.90
20594;DHT22;10455;48.732;10.266;2023-03-23T17:59:36;14.90;99.90
20594;DHT22;10455;48.732;10.266;2023-03-23T18:04:38;14.80;99.90
20594;DHT22;10455;48.732;10.266;2023-03-23T18:09:43;14.80;99.90
20594;DHT22;10455;48.732;10.266;2023-03-23T18:14:45;14.60;99.90
20594;DHT22;10455;48.732;10.266;2023-03-23T18:19:47;14.70;99.90
20594;DHT22;10455;48.732;10.266;2023-03-23T18:24:50;14.60;99.90
20594;DHT22;10455;48.732;10.266;2023-03-23T18:29:53;14.60;99.90
20594;DHT22;10455;48.732;10.266;2023-03-23T18:34:55;14.60;99.90
20594;DHT22;10455;48.732;10.266;2023-03-23T18:39:58;14.40;99.90
20594;DHT22;10455;48.732;10.266;2023-03-23T18:45:00;14.20;99.90
20594;DHT22;10455;48.732;10.266;2023-03-23T18:50:03;14.00;99.90
20594;DHT22;10455;48.732;10.266;2023-03-23T18:55:06;13.80;99.90
20594;DHT22;10455;48.732;10.266;2023-03-23T19:00:09;13.80;99.90
20594;DHT22;10455;48.732;10.266;2023-03-23T19:05:11;13.60;99.90
20594;DHT22;10455;48.732;10.266;2023-03-23T19:10:15;13.60;99.90
20594;DHT22;10455;48.732;10.266;2023-03-23T19:15:17;13.60;99.90
20594;DHT22;10455;48.732;10.266;2023-03-23T19:20:19;13.70;99.90
20594;DHT22;10455;48.732;10.266;2023-03-23T19:25:22;13.70;99.90
20594;DHT22;10455;48.732;10.266;2023-03-23T19:30:25;13.70;99.90
20594;DHT22;10455;48.732;10.266;2023-03-23T19:35:27;13.70;99.90
20594;DHT22;10455;48.732;10.266;2023-03-23T19:40:31;13.50;99.90
20594;DHT22;10455;48.732;10.266;2023-03-23T19:45:33;13.30;99.90
20594;DHT22;10455;48.732;10.266;2023-03-23T19:50:35;13.20;99.90
20594;DHT22;10455;48.732;10.266;2023-03-23T19:55:40;13.20;99.90
20594;DHT22;10455;48.732;10.266;2023-03-23T20:00:42;13.10;99.90
20594;DHT22;10455;48.732;10.266;2023-03-23T20:05:44;13.20;99.90
20594;DHT22;10455;48.732;10.266;2023-03-23T20:10:48;13.30;99.90
20594;DHT22;10455;48.732;10.266;2023-03-23T20:15:51;13.20;99.90
20594;DHT22;10455;48.732;10.266;2023-03-23T20:20:59;13.30;99.90
20594;DHT22;10455;48.732;10.266;2023-03-23T20:26:05;13.30;99.90
20594;DHT22;10455;48.732;10.266;2023-03-23T20:31:09;13.20;99.90
20594;DHT22;10455;48.732;10.266;2023-03-23T20:36:13;13.20;99.90
20594;DHT22;10455;48.732;10.266;2023-03-23T20:41:20;13.20;99.90
20594;DHT22;10455;48.732;10.266;2023-03-23T20:46:22;13.10;99.90
20594;DHT22;10455;48.732;10.266;2023-03-23T20:51:25;13.10;99.90
20594;DHT22;10455;48.732;10.266;2023-03-23T20:56:29;13.00;99.90
20594;DHT22;10455;48.732;10.266;2023-03-23T21:01:32;12.90;99.90
20594;DHT22;10455;48.732;10.266;2023-03-23T21:06:33;12.80;99.90
20594;DHT22;10455;48.732;10.266;2023-03-23T21:11:38;12.80;99.90
20594;DHT22;10455;48.732;10.266;2023-03-23T21:16:40;12.80;99.90
20594;DHT22;10455;48.732;10.266;2023-03-23T21:21:42;12.80;99.90
20594;DHT22;10455;48.732;10.266;2023-03-23T21:26:45;12.80;99.90
20594;DHT22;10455;48.732;10.266;2023-03-23T21:31:47;12.90;99.90
20594;DHT22;10455;48.732;10.266;2023-03-23T21:36:49;12.70;99.90
20594;DHT22;10455;48.732;10.266;2023-03-23T21:41:52;12.60;99.90
20594;DHT22;10455;48.732;10.266;2023-03-23T21:46:54;12.70;99.90
20594;DHT22;10455;48.732;10.266;2023-03-23T21:51:56;12.70;99.90
20594;DHT22;10455;48.732;10.266;2023-03-23T21:56:59;12.80;99.90
20594;DHT22;10455;48.732;10.266;2023-03-23T22:02:01;12.90;99.90
20594;DHT22;10455;48.732;10.266;2023-03-23T22:07:03;12.80;99.90
20594;DHT22;10455;48.732;10.266;2023-03-23T22:12:07;12.80;99.90
20594;DHT22;10455;48.732;10.266;2023-03-23T22:17:09;12.80;99.90
20594;DHT22;10455;48.732;10.266;2023-03-23T22:22:11;12.80;99.90
20594;DHT22;10455;48.732;10.266;2023-03-23T22:27:14;12.80;99.90
20594;DHT22;10455;48.732;10.266;2023-03-23T22:32:16;12.90;99.90
20594;DHT22;10455;48.732;10.266;2023-03-23T22:37:18;12.80;99.90
20594;DHT22;10455;48.732;10.266;2023-03-23T22:42:22;12.70;99.90
20594;DHT22;10455;48.732;10.266;2023-03-23T22:47:24;12.60;99.90
20594;DHT22;10455;48.732;10.266;2023-03-23T22:52:26;12.50;99.90
20594;DHT22;10455;48.732;10.266;2023-03-23T22:57:30;12.60;99.90
20594;DHT22;10455;48.732;10.266;2023-03-23T23:02:32;12.70;99.90
20594;DHT22;10455;48.732;10.266;2023-03-23T23:07:34;12.70;99.90
20594;DHT22;10455;48.732;10.266;2023-03-23T23:12:38;12.60;99.90
20594;DHT22;10455;48.732;10.266;2023-03-23T23:17:41;12.60;99.90
20594;DHT22;10455;48.732;10.266;2023-03-23T23:22:43;12.70;99.90
20594;DHT22;10455;48.732;10.266;2023-03-23T23:27:47;12.70;99.90
20594;DHT22;10455;48.732;10.266;2023-03-23T23:32:49;12.40;99.90
20594;DHT22;10455;48.732;10.266;2023-03-23T23:37:52;12.30;99.90
20594;DHT22;10455;48.732;10.266;2023-03-23T23:42:55;12.30;99.90
20594;DHT22;10455;48.732;10.266;2023-03-23T23:47:58;12.50;99.90
20594;DHT22;10455;48.732;10.266;2023-03-23T23:53:00;12.60;99.90
20594;DHT22;10455;48.732;10.266;2023-03-23T23:58:05;12.70;99.90
